sensor_id;sensor_type;location;lat;lon;timestamp;P1;durP1;ratioP1;P2;durP2;ratioP2
54745;SDS011;40640;48.130;11.356;2023-02-26T00:03:42;3.63;;;2.80;;
54745;SDS011;40640;48.130;11.356;2023-02-26T00:07:45;7.10;;;2.90;;
54745;SDS011;40640;48.130;11.356;2023-02-26T00:11:48;3.60;;;2.88;;
54745;SDS011;40640;48.130;11.356;2023-02-26T00:15:53;3.85;;;2.90;;
54745;SDS011;40640;48.130;11.356;2023-02-26T00:20:02;2.97;;;2.58;;
54745;SDS011;40640;48.130;11.356;2023-02-26T00:24:05;2.53;;;2.30;;
54745;SDS011;40640;48.130;11.356;2023-02-26T00:28:09;5.05;;;2.53;;
54745;SDS011;40640;48.130;11.356;2023-02-26T00:32:12;2.90;;;2.25;;
54745;SDS011;40640;48.130;11.356;2023-02-26T00:36:21;2.80;;;1.75;;
54745;SDS011;40640;48.130;11.356;2023-02-26T00:40:40;1.83;;;1.73;;
54745;SDS011;40640;48.130;11.356;2023-02-26T00:44:45;1.60;;;1.40;;
54745;SDS011;40640;48.130;11.356;2023-02-26T00:48:51;2.63;;;1.30;;
54745;SDS011;40640;48.130;11.356;2023-02-26T00:53:02;1.65;;;1.40;;
54745;SDS011;40640;48.130;11.356;2023-02-26T00:57:13;1.15;;;1.05;;
54745;SDS011;40640;48.130;11.356;2023-02-26T01:01:17;1.67;;;1.15;;
54745;SDS011;40640;48.130;11.356;2023-02-26T01:05:20;1.65;;;1.20;;
54745;SDS011;40640;48.130;11.356;2023-02-26T01:09:25;1.55;;;1.20;;
54745;SDS011;40640;48.130;11.356;2023-02-26T01:13:30;1.27;;;1.15;;
54745;SDS011;40640;48.130;11.356;2023-02-26T01:17:34;1.55;;;1.02;;
54745;SDS011;40640;48.130;11.356;2023-02-26T01:21:44;2.80;;;1.30;;
54745;SDS011;40640;48.130;11.356;2023-02-26T01:25:54;1.27;;;1.15;;
54745;SDS011;40640;48.130;11.356;2023-02-26T01:29:59;2.65;;;1.17;;
54745;SDS011;40640;48.130;11.356;2023-02-26T01:34:04;2.65;;;1.30;;
54745;SDS011;40640;48.130;11.356;2023-02-26T01:38:14;1.50;;;1.25;;
54745;SDS011;40640;48.130;11.356;2023-02-26T01:42:25;2.55;;;1.50;;
54745;SDS011;40640;48.130;11.356;2023-02-26T01:46:34;3.50;;;1.27;;
54745;SDS011;40640;48.130;11.356;2023-02-26T01:50:40;1.20;;;1.10;;
54745;SDS011;40640;48.130;11.356;2023-02-26T01:54:43;4.82;;;1.50;;
54745;SDS011;40640;48.130;11.356;2023-02-26T01:58:47;1.77;;;1.17;;
54745;SDS011;40640;48.130;11.356;2023-02-26T02:02:52;2.10;;;1.35;;
54745;SDS011;40640;48.130;11.356;2023-02-26T02:06:55;1.30;;;1.20;;
54745;SDS011;40640;48.130;11.356;2023-02-26T02:10:58;1.85;;;1.30;;
54745;SDS011;40640;48.130;11.356;2023-02-26T02:15:05;1.73;;;1.20;;
54745;SDS011;40640;48.130;11.356;2023-02-26T02:19:23;1.95;;;1.33;;
54745;SDS011;40640;48.130;11.356;2023-02-26T02:23:41;3.22;;;1.55;;
54745;SDS011;40640;48.130;11.356;2023-02-26T02:27:48;3.38;;;1.63;;
54745;SDS011;40640;48.130;11.356;2023-02-26T02:32:01;2.22;;;1.65;;
54745;SDS011;40640;48.130;11.356;2023-02-26T02:36:09;3.78;;;1.67;;
54745;SDS011;40640;48.130;11.356;2023-02-26T02:40:17;2.42;;;1.38;;
54745;SDS011;40640;48.130;11.356;2023-02-26T02:44:22;1.83;;;1.40;;
54745;SDS011;40640;48.130;11.356;2023-02-26T02:48:29;3.63;;;1.42;;
54745;SDS011;40640;48.130;11.356;2023-02-26T02:52:37;1.73;;;1.50;;
54745;SDS011;40640;48.130;11.356;2023-02-26T02:56:46;1.65;;;0.93;;
54745;SDS011;40640;48.130;11.356;2023-02-26T03:00:54;2.95;;;1.48;;
54745;SDS011;40640;48.130;11.356;2023-02-26T03:05:03;3.83;;;1.25;;
54745;SDS011;40640;48.130;11.356;2023-02-26T03:09:07;3.22;;;1.40;;
54745;SDS011;40640;48.130;11.356;2023-02-26T03:13:15;3.53;;;1.50;;
54745;SDS011;40640;48.130;11.356;2023-02-26T03:17:23;4.30;;;1.40;;
54745;SDS011;40640;48.130;11.356;2023-02-26T03:21:33;2.50;;;1.27;;
54745;SDS011;40640;48.130;11.356;2023-02-26T03:25:49;1.25;;;0.90;;
54745;SDS011;40640;48.130;11.356;2023-02-26T03:29:58;4.05;;;1.40;;
54745;SDS011;40640;48.130;11.356;2023-02-26T03:34:11;4.75;;;1.50;;
54745;SDS011;40640;48.130;11.356;2023-02-26T03:38:23;2.60;;;1.27;;
54745;SDS011;40640;48.130;11.356;2023-02-26T03:42:31;5.28;;;1.45;;
54745;SDS011;40640;48.130;11.356;2023-02-26T03:46:41;4.53;;;1.40;;
54745;SDS011;40640;48.130;11.356;2023-02-26T03:50:48;1.95;;;1.30;;
54745;SDS011;40640;48.130;11.356;2023-02-26T03:55:18;3.83;;;1.65;;
54745;SDS011;40640;48.130;11.356;2023-02-26T03:59:40;2.88;;;1.23;;
54745;SDS011;40640;48.130;11.356;2023-02-26T04:04:03;2.50;;;1.02;;
54745;SDS011;40640;48.130;11.356;2023-02-26T04:08:10;1.70;;;1.20;;
54745;SDS011;40640;48.130;11.356;2023-02-26T04:12:14;3.13;;;1.13;;
54745;SDS011;40640;48.130;11.356;2023-02-26T04:16:22;2.42;;;1.45;;
54745;SDS011;40640;48.130;11.356;2023-02-26T04:20:26;1.30;;;1.10;;
54745;SDS011;40640;48.130;11.356;2023-02-26T04:24:29;4.05;;;1.08;;
54745;SDS011;40640;48.130;11.356;2023-02-26T04:28:36;3.35;;;1.35;;
54745;SDS011;40640;48.130;11.356;2023-02-26T04:32:38;4.07;;;1.25;;
54745;SDS011;40640;48.130;11.356;2023-02-26T04:36:44;4.10;;;1.63;;
54745;SDS011;40640;48.130;11.356;2023-02-26T04:40:47;2.70;;;1.73;;
54745;SDS011;40640;48.130;11.356;2023-02-26T04:44:53;2.88;;;1.33;;
54745;SDS011;40640;48.130;11.356;2023-02-26T04:48:58;3.65;;;1.42;;
54745;SDS011;40640;48.130;11.356;2023-02-26T04:53:01;2.53;;;1.08;;
54745;SDS011;40640;48.130;11.356;2023-02-26T04:57:09;2.65;;;0.95;;
54745;SDS011;40640;48.130;11.356;2023-02-26T05:01:14;7.55;;;1.38;;
54745;SDS011;40640;48.130;11.356;2023-02-26T05:05:16;6.70;;;1.40;;
54745;SDS011;40640;48.130;11.356;2023-02-26T05:09:20;3.65;;;1.25;;
54745;SDS011;40640;48.130;11.356;2023-02-26T05:13:23;2.28;;;1.30;;
54745;SDS011;40640;48.130;11.356;2023-02-26T05:17:27;3.85;;;1.25;;
54745;SDS011;40640;48.130;11.356;2023-02-26T05:21:30;5.03;;;1.38;;
54745;SDS011;40640;48.130;11.356;2023-02-26T05:25:33;4.47;;;1.75;;
54745;SDS011;40640;48.130;11.356;2023-02-26T05:29:36;3.40;;;1.60;;
54745;SDS011;40640;48.130;11.356;2023-02-26T05:33:44;4.07;;;1.40;;
54745;SDS011;40640;48.130;11.356;2023-02-26T05:37:47;5.22;;;1.88;;
54745;SDS011;40640;48.130;11.356;2023-02-26T05:41:49;4.22;;;1.73;;
54745;SDS011;40640;48.130;11.356;2023-02-26T05:45:55;3.22;;;1.20;;
54745;SDS011;40640;48.130;11.356;2023-02-26T05:50:00;1.50;;;1.30;;
54745;SDS011;40640;48.130;11.356;2023-02-26T05:54:03;5.03;;;1.42;;
54745;SDS011;40640;48.130;11.356;2023-02-26T05:58:06;9.00;;;2.10;;
54745;SDS011;40640;48.130;11.356;2023-02-26T06:02:08;2.13;;;1.27;;
54745;SDS011;40640;48.130;11.356;2023-02-26T06:06:13;3.65;;;1.55;;
54745;SDS011;40640;48.130;11.356;2023-02-26T06:10:18;4.32;;;1.50;;
54745;SDS011;40640;48.130;11.356;2023-02-26T06:14:21;3.35;;;1.40;;
54745;SDS011;40640;48.130;11.356;2023-02-26T06:18:24;7.75;;;1.83;;
54745;SDS011;40640;48.130;11.356;2023-02-26T06:22:28;9.10;;;1.92;;
54745;SDS011;40640;48.130;11.356;2023-02-26T06:26:31;5.68;;;1.65;;
54745;SDS011;40640;48.130;11.356;2023-02-26T06:30:34;4.25;;;1.60;;
54745;SDS011;40640;48.130;11.356;2023-02-26T06:34:37;4.85;;;1.80;;
54745;SDS011;40640;48.130;11.356;2023-02-26T06:38:41;6.25;;;1.70;;
54745;SDS011;40640;48.130;11.356;2023-02-26T06:42:45;3.23;;;1.50;;
54745;SDS011;40640;48.130;11.356;2023-02-26T06:46:48;4.57;;;1.92;;
54745;SDS011;40640;48.130;11.356;2023-02-26T06:50:51;3.42;;;1.75;;
54745;SDS011;40640;48.130;11.356;2023-02-26T06:54:55;4.57;;;1.48;;
54745;SDS011;40640;48.130;11.356;2023-02-26T06:58:58;4.13;;;1.38;;
54745;SDS011;40640;48.130;11.356;2023-02-26T07:03:01;5.82;;;1.70;;
54745;SDS011;40640;48.130;11.356;2023-02-26T07:07:04;6.15;;;1.27;;
54745;SDS011;40640;48.130;11.356;2023-02-26T07:11:08;8.60;;;1.67;;
54745;SDS011;40640;48.130;11.356;2023-02-26T07:15:12;4.80;;;1.95;;
54745;SDS011;40640;48.130;11.356;2023-02-26T07:19:14;3.58;;;1.80;;
54745;SDS011;40640;48.130;11.356;2023-02-26T07:23:17;5.72;;;2.15;;
54745;SDS011;40640;48.130;11.356;2023-02-26T07:27:21;7.43;;;2.53;;
54745;SDS011;40640;48.130;11.356;2023-02-26T07:31:24;7.40;;;2.10;;
54745;SDS011;40640;48.130;11.356;2023-02-26T07:35:28;5.43;;;2.03;;
54745;SDS011;40640;48.130;11.356;2023-02-26T07:39:31;5.15;;;1.60;;
54745;SDS011;40640;48.130;11.356;2023-02-26T07:43:35;3.65;;;1.70;;
54745;SDS011;40640;48.130;11.356;2023-02-26T07:47:38;5.68;;;1.92;;
54745;SDS011;40640;48.130;11.356;2023-02-26T07:51:41;5.63;;;1.88;;
54745;SDS011;40640;48.130;11.356;2023-02-26T07:55:46;5.97;;;2.10;;
54745;SDS011;40640;48.130;11.356;2023-02-26T07:59:50;5.97;;;1.83;;
54745;SDS011;40640;48.130;11.356;2023-02-26T08:03:53;6.90;;;2.20;;
54745;SDS011;40640;48.130;11.356;2023-02-26T08:07:55;5.15;;;1.98;;
54745;SDS011;40640;48.130;11.356;2023-02-26T08:11:58;4.28;;;1.98;;
54745;SDS011;40640;48.130;11.356;2023-02-26T08:16:03;4.68;;;1.95;;
54745;SDS011;40640;48.130;11.356;2023-02-26T08:20:08;4.68;;;1.70;;
54745;SDS011;40640;48.130;11.356;2023-02-26T08:24:12;5.05;;;1.90;;
54745;SDS011;40640;48.130;11.356;2023-02-26T08:28:15;3.75;;;1.90;;
54745;SDS011;40640;48.130;11.356;2023-02-26T08:32:19;6.00;;;1.50;;
54745;SDS011;40640;48.130;11.356;2023-02-26T08:36:23;5.45;;;2.10;;
54745;SDS011;40640;48.130;11.356;2023-02-26T08:40:27;4.40;;;1.88;;
54745;SDS011;40640;48.130;11.356;2023-02-26T08:44:29;6.80;;;1.92;;
54745;SDS011;40640;48.130;11.356;2023-02-26T08:48:34;5.57;;;1.98;;
54745;SDS011;40640;48.130;11.356;2023-02-26T08:52:36;4.22;;;1.67;;
54745;SDS011;40640;48.130;11.356;2023-02-26T08:56:40;4.15;;;1.50;;
54745;SDS011;40640;48.130;11.356;2023-02-26T09:00:43;5.13;;;1.80;;
54745;SDS011;40640;48.130;11.356;2023-02-26T09:04:47;3.50;;;1.92;;
54745;SDS011;40640;48.130;11.356;2023-02-26T09:08:50;5.55;;;2.30;;
54745;SDS011;40640;48.130;11.356;2023-02-26T09:12:53;2.08;;;1.85;;
54745;SDS011;40640;48.130;11.356;2023-02-26T09:16:56;8.68;;;2.92;;
54745;SDS011;40640;48.130;11.356;2023-02-26T09:21:00;4.13;;;2.30;;
54745;SDS011;40640;48.130;11.356;2023-02-26T09:25:04;4.10;;;2.20;;
54745;SDS011;40640;48.130;11.356;2023-02-26T09:29:14;3.35;;;2.20;;
54745;SDS011;40640;48.130;11.356;2023-02-26T09:33:17;5.95;;;2.53;;
54745;SDS011;40640;48.130;11.356;2023-02-26T09:37:21;3.00;;;2.42;;
54745;SDS011;40640;48.130;11.356;2023-02-26T09:41:25;4.03;;;2.60;;
54745;SDS011;40640;48.130;11.356;2023-02-26T09:45:32;5.45;;;2.13;;
54745;SDS011;40640;48.130;11.356;2023-02-26T09:49:42;3.70;;;2.47;;
54745;SDS011;40640;48.130;11.356;2023-02-26T09:53:51;5.47;;;1.90;;
54745;SDS011;40640;48.130;11.356;2023-02-26T09:57:55;5.90;;;2.22;;
54745;SDS011;40640;48.130;11.356;2023-02-26T10:02:03;2.20;;;1.80;;
54745;SDS011;40640;48.130;11.356;2023-02-26T10:06:17;3.38;;;2.20;;
54745;SDS011;40640;48.130;11.356;2023-02-26T10:10:30;3.35;;;2.13;;
54745;SDS011;40640;48.130;11.356;2023-02-26T10:14:41;3.80;;;2.00;;
54745;SDS011;40640;48.130;11.356;2023-02-26T10:18:51;3.08;;;2.10;;
54745;SDS011;40640;48.130;11.356;2023-02-26T10:22:59;4.45;;;2.15;;
54745;SDS011;40640;48.130;11.356;2023-02-26T10:27:08;4.47;;;2.22;;
54745;SDS011;40640;48.130;11.356;2023-02-26T10:31:18;3.35;;;2.08;;
54745;SDS011;40640;48.130;11.356;2023-02-26T10:35:26;2.90;;;2.03;;
54745;SDS011;40640;48.130;11.356;2023-02-26T10:39:34;7.05;;;2.22;;
54745;SDS011;40640;48.130;11.356;2023-02-26T10:43:46;5.50;;;2.28;;
54745;SDS011;40640;48.130;11.356;2023-02-26T10:47:52;4.57;;;2.45;;
54745;SDS011;40640;48.130;11.356;2023-02-26T10:52:09;2.60;;;2.03;;
54745;SDS011;40640;48.130;11.356;2023-02-26T10:56:15;3.63;;;2.28;;
54745;SDS011;40640;48.130;11.356;2023-02-26T11:00:24;3.08;;;2.35;;
54745;SDS011;40640;48.130;11.356;2023-02-26T11:04:27;4.28;;;2.47;;
54745;SDS011;40640;48.130;11.356;2023-02-26T11:08:31;2.58;;;2.33;;
54745;SDS011;40640;48.130;11.356;2023-02-26T11:12:35;3.45;;;2.55;;
54745;SDS011;40640;48.130;11.356;2023-02-26T11:16:45;3.38;;;2.58;;
54745;SDS011;40640;48.130;11.356;2023-02-26T11:20:52;3.92;;;2.70;;
54745;SDS011;40640;48.130;11.356;2023-02-26T11:24:58;4.10;;;2.40;;
54745;SDS011;40640;48.130;11.356;2023-02-26T11:29:02;4.72;;;2.45;;
54745;SDS011;40640;48.130;11.356;2023-02-26T11:33:14;3.80;;;2.58;;
54745;SDS011;40640;48.130;11.356;2023-02-26T11:37:19;4.40;;;2.35;;
54745;SDS011;40640;48.130;11.356;2023-02-26T11:41:25;2.50;;;2.30;;
54745;SDS011;40640;48.130;11.356;2023-02-26T11:45:30;3.67;;;2.40;;
54745;SDS011;40640;48.130;11.356;2023-02-26T11:49:39;3.40;;;2.40;;
54745;SDS011;40640;48.130;11.356;2023-02-26T11:53:47;2.92;;;2.33;;
54745;SDS011;40640;48.130;11.356;2023-02-26T11:57:51;3.45;;;2.30;;
54745;SDS011;40640;48.130;11.356;2023-02-26T12:01:55;2.60;;;2.30;;
54745;SDS011;40640;48.130;11.356;2023-02-26T12:06:06;2.40;;;2.20;;
54745;SDS011;40640;48.130;11.356;2023-02-26T12:10:14;6.60;;;2.88;;
54745;SDS011;40640;48.130;11.356;2023-02-26T12:14:24;3.40;;;2.30;;
54745;SDS011;40640;48.130;11.356;2023-02-26T12:18:43;3.03;;;2.35;;
54745;SDS011;40640;48.130;11.356;2023-02-26T12:23:01;3.53;;;2.65;;
54745;SDS011;40640;48.130;11.356;2023-02-26T12:27:23;2.67;;;2.22;;
54745;SDS011;40640;48.130;11.356;2023-02-26T12:36:16;3.10;;;1.80;;
54745;SDS011;40640;48.130;11.356;2023-02-26T12:41:01;2.65;;;1.40;;
54745;SDS011;40640;48.130;11.356;2023-02-26T12:45:25;2.38;;;1.30;;
54745;SDS011;40640;48.130;11.356;2023-02-26T12:49:41;2.83;;;1.65;;
54745;SDS011;40640;48.130;11.356;2023-02-26T12:54:25;1.40;;;1.30;;
54745;SDS011;40640;48.130;11.356;2023-02-26T13:07:52;2.13;;;1.30;;
54745;SDS011;40640;48.130;11.356;2023-02-26T13:12:08;1.75;;;1.38;;
54745;SDS011;40640;48.130;11.356;2023-02-26T13:16:27;3.17;;;1.48;;
54745;SDS011;40640;48.130;11.356;2023-02-26T13:20:37;2.83;;;1.65;;
54745;SDS011;40640;48.130;11.356;2023-02-26T13:24:44;2.70;;;1.48;;
54745;SDS011;40640;48.130;11.356;2023-02-26T13:28:52;1.02;;;0.80;;
54745;SDS011;40640;48.130;11.356;2023-02-26T13:32:59;1.60;;;1.20;;
54745;SDS011;40640;48.130;11.356;2023-02-26T13:37:03;2.03;;;1.60;;
54745;SDS011;40640;48.130;11.356;2023-02-26T13:41:09;3.25;;;2.10;;
54745;SDS011;40640;48.130;11.356;2023-02-26T13:45:20;3.25;;;2.00;;
54745;SDS011;40640;48.130;11.356;2023-02-26T13:49:36;3.63;;;2.13;;
54745;SDS011;40640;48.130;11.356;2023-02-26T13:53:53;3.05;;;2.05;;
54745;SDS011;40640;48.130;11.356;2023-02-26T13:58:04;2.45;;;2.00;;
54745;SDS011;40640;48.130;11.356;2023-02-26T14:06:54;3.30;;;2.10;;
54745;SDS011;40640;48.130;11.356;2023-02-26T14:11:01;2.85;;;2.10;;
54745;SDS011;40640;48.130;11.356;2023-02-26T14:19:27;4.72;;;2.35;;
54745;SDS011;40640;48.130;11.356;2023-02-26T14:23:36;1.60;;;1.45;;
54745;SDS011;40640;48.130;11.356;2023-02-26T14:27:42;1.83;;;1.67;;
54745;SDS011;40640;48.130;11.356;2023-02-26T14:31:54;1.65;;;1.23;;
54745;SDS011;40640;48.130;11.356;2023-02-26T14:36:15;4.53;;;1.95;;
54745;SDS011;40640;48.130;11.356;2023-02-26T14:40:23;1.70;;;1.50;;
54745;SDS011;40640;48.130;11.356;2023-02-26T14:44:27;3.03;;;1.90;;
54745;SDS011;40640;48.130;11.356;2023-02-26T14:48:33;2.93;;;2.00;;
54745;SDS011;40640;48.130;11.356;2023-02-26T14:52:42;2.20;;;1.67;;
54745;SDS011;40640;48.130;11.356;2023-02-26T15:01:06;1.90;;;1.48;;
54745;SDS011;40640;48.130;11.356;2023-02-26T15:05:26;3.17;;;1.73;;
54745;SDS011;40640;48.130;11.356;2023-02-26T15:09:39;4.03;;;1.45;;
54745;SDS011;40640;48.130;11.356;2023-02-26T15:14:03;1.63;;;1.20;;
54745;SDS011;40640;48.130;11.356;2023-02-26T15:18:21;2.33;;;1.23;;
54745;SDS011;40640;48.130;11.356;2023-02-26T15:22:52;6.65;;;1.60;;
54745;SDS011;40640;48.130;11.356;2023-02-26T15:27:12;3.47;;;1.67;;
54745;SDS011;40640;48.130;11.356;2023-02-26T15:31:20;2.58;;;1.65;;
54745;SDS011;40640;48.130;11.356;2023-02-26T15:35:32;3.00;;;1.58;;
54745;SDS011;40640;48.130;11.356;2023-02-26T15:39:35;2.72;;;1.83;;
54745;SDS011;40640;48.130;11.356;2023-02-26T15:43:38;4.82;;;1.90;;
54745;SDS011;40640;48.130;11.356;2023-02-26T15:47:47;2.65;;;2.00;;
54745;SDS011;40640;48.130;11.356;2023-02-26T15:51:55;5.00;;;1.95;;
54745;SDS011;40640;48.130;11.356;2023-02-26T15:55:59;2.85;;;1.95;;
54745;SDS011;40640;48.130;11.356;2023-02-26T16:00:06;3.30;;;1.98;;
54745;SDS011;40640;48.130;11.356;2023-02-26T16:04:17;3.63;;;1.85;;
54745;SDS011;40640;48.130;11.356;2023-02-26T16:08:22;3.58;;;2.10;;
54745;SDS011;40640;48.130;11.356;2023-02-26T16:12:26;3.47;;;1.98;;
54745;SDS011;40640;48.130;11.356;2023-02-26T16:16:37;5.38;;;2.10;;
54745;SDS011;40640;48.130;11.356;2023-02-26T16:20:49;4.00;;;2.50;;
54745;SDS011;40640;48.130;11.356;2023-02-26T16:24:57;2.35;;;1.80;;
54745;SDS011;40640;48.130;11.356;2023-02-26T16:29:03;3.50;;;2.30;;
54745;SDS011;40640;48.130;11.356;2023-02-26T16:33:12;5.78;;;2.63;;
54745;SDS011;40640;48.130;11.356;2023-02-26T16:37:22;4.72;;;2.40;;
54745;SDS011;40640;48.130;11.356;2023-02-26T16:41:30;7.47;;;2.70;;
54745;SDS011;40640;48.130;11.356;2023-02-26T16:45:43;2.90;;;1.98;;
54745;SDS011;40640;48.130;11.356;2023-02-26T16:49:51;2.42;;;1.67;;
54745;SDS011;40640;48.130;11.356;2023-02-26T16:53:55;2.17;;;1.58;;
54745;SDS011;40640;48.130;11.356;2023-02-26T16:58:03;6.65;;;2.70;;
54745;SDS011;40640;48.130;11.356;2023-02-26T17:02:11;4.57;;;2.00;;
54745;SDS011;40640;48.130;11.356;2023-02-26T17:06:18;3.95;;;2.08;;
54745;SDS011;40640;48.130;11.356;2023-02-26T17:10:28;3.88;;;2.17;;
54745;SDS011;40640;48.130;11.356;2023-02-26T17:14:36;3.15;;;2.00;;
54745;SDS011;40640;48.130;11.356;2023-02-26T17:18:45;3.63;;;2.13;;
54745;SDS011;40640;48.130;11.356;2023-02-26T17:22:48;4.68;;;2.50;;
54745;SDS011;40640;48.130;11.356;2023-02-26T17:26:53;3.83;;;2.30;;
54745;SDS011;40640;48.130;11.356;2023-02-26T17:30:56;4.10;;;2.70;;
54745;SDS011;40640;48.130;11.356;2023-02-26T17:34:59;3.45;;;1.95;;
54745;SDS011;40640;48.130;11.356;2023-02-26T17:39:08;5.18;;;2.40;;
54745;SDS011;40640;48.130;11.356;2023-02-26T17:47:17;4.95;;;2.58;;
54745;SDS011;40640;48.130;11.356;2023-02-26T17:51:21;5.63;;;2.65;;
54745;SDS011;40640;48.130;11.356;2023-02-26T17:55:24;3.33;;;2.08;;
54745;SDS011;40640;48.130;11.356;2023-02-26T17:59:29;3.25;;;1.90;;
54745;SDS011;40640;48.130;11.356;2023-02-26T18:03:31;2.50;;;1.95;;
54745;SDS011;40640;48.130;11.356;2023-02-26T18:07:34;2.67;;;2.13;;
54745;SDS011;40640;48.130;11.356;2023-02-26T18:11:38;2.33;;;2.00;;
54745;SDS011;40640;48.130;11.356;2023-02-26T18:15:43;3.10;;;2.00;;
54745;SDS011;40640;48.130;11.356;2023-02-26T18:19:46;2.95;;;2.10;;
54745;SDS011;40640;48.130;11.356;2023-02-26T18:23:49;2.60;;;1.83;;
54745;SDS011;40640;48.130;11.356;2023-02-26T18:27:53;2.88;;;1.85;;
54745;SDS011;40640;48.130;11.356;2023-02-26T18:32:01;3.00;;;2.35;;
54745;SDS011;40640;48.130;11.356;2023-02-26T18:36:05;3.40;;;2.20;;
54745;SDS011;40640;48.130;11.356;2023-02-26T18:40:11;4.43;;;2.42;;
54745;SDS011;40640;48.130;11.356;2023-02-26T18:44:16;3.15;;;2.28;;
54745;SDS011;40640;48.130;11.356;2023-02-26T18:48:20;3.78;;;2.78;;
54745;SDS011;40640;48.130;11.356;2023-02-26T18:52:23;6.35;;;3.08;;
54745;SDS011;40640;48.130;11.356;2023-02-26T18:56:26;6.18;;;2.80;;
54745;SDS011;40640;48.130;11.356;2023-02-26T19:00:29;8.77;;;3.97;;
54745;SDS011;40640;48.130;11.356;2023-02-26T19:04:34;5.88;;;3.00;;
54745;SDS011;40640;48.130;11.356;2023-02-26T19:08:37;4.18;;;2.90;;
54745;SDS011;40640;48.130;11.356;2023-02-26T19:12:40;5.82;;;2.63;;
54745;SDS011;40640;48.130;11.356;2023-02-26T19:16:43;4.70;;;2.72;;
54745;SDS011;40640;48.130;11.356;2023-02-26T19:20:47;3.20;;;2.70;;
54745;SDS011;40640;48.130;11.356;2023-02-26T19:24:50;5.00;;;3.15;;
54745;SDS011;40640;48.130;11.356;2023-02-26T19:28:53;3.88;;;2.70;;
54745;SDS011;40640;48.130;11.356;2023-02-26T19:32:56;4.53;;;2.85;;
54745;SDS011;40640;48.130;11.356;2023-02-26T19:37:00;4.05;;;2.88;;
54745;SDS011;40640;48.130;11.356;2023-02-26T19:41:04;3.63;;;2.70;;
54745;SDS011;40640;48.130;11.356;2023-02-26T19:45:08;4.32;;;2.95;;
54745;SDS011;40640;48.130;11.356;2023-02-26T19:49:12;5.82;;;2.67;;
54745;SDS011;40640;48.130;11.356;2023-02-26T19:53:16;4.68;;;3.13;;
54745;SDS011;40640;48.130;11.356;2023-02-26T19:57:19;4.00;;;2.53;;
54745;SDS011;40640;48.130;11.356;2023-02-26T20:01:22;6.57;;;3.40;;
54745;SDS011;40640;48.130;11.356;2023-02-26T20:05:25;3.20;;;2.47;;
54745;SDS011;40640;48.130;11.356;2023-02-26T20:09:29;5.47;;;3.00;;
54745;SDS011;40640;48.130;11.356;2023-02-26T20:13:32;4.93;;;3.45;;
54745;SDS011;40640;48.130;11.356;2023-02-26T20:17:36;5.45;;;3.50;;
54745;SDS011;40640;48.130;11.356;2023-02-26T20:21:39;5.13;;;3.47;;
54745;SDS011;40640;48.130;11.356;2023-02-26T20:25:44;6.20;;;3.53;;
54745;SDS011;40640;48.130;11.356;2023-02-26T20:29:50;6.22;;;3.67;;
54745;SDS011;40640;48.130;11.356;2023-02-26T20:33:53;6.72;;;3.88;;
54745;SDS011;40640;48.130;11.356;2023-02-26T20:37:56;8.82;;;4.57;;
54745;SDS011;40640;48.130;11.356;2023-02-26T20:42:00;5.55;;;3.72;;
54745;SDS011;40640;48.130;11.356;2023-02-26T20:46:04;5.22;;;3.42;;
54745;SDS011;40640;48.130;11.356;2023-02-26T20:50:07;6.03;;;3.58;;
54745;SDS011;40640;48.130;11.356;2023-02-26T20:54:11;6.72;;;4.20;;
54745;SDS011;40640;48.130;11.356;2023-02-26T20:58:16;8.40;;;4.50;;
54745;SDS011;40640;48.130;11.356;2023-02-26T21:02:19;7.88;;;3.70;;
54745;SDS011;40640;48.130;11.356;2023-02-26T21:06:22;9.68;;;4.07;;
54745;SDS011;40640;48.130;11.356;2023-02-26T21:10:24;6.60;;;3.97;;
54745;SDS011;40640;48.130;11.356;2023-02-26T21:14:30;6.80;;;4.40;;
54745;SDS011;40640;48.130;11.356;2023-02-26T21:18:33;7.18;;;3.88;;
54745;SDS011;40640;48.130;11.356;2023-02-26T21:22:35;4.95;;;3.72;;
54745;SDS011;40640;48.130;11.356;2023-02-26T21:26:39;5.70;;;3.60;;
54745;SDS011;40640;48.130;11.356;2023-02-26T21:30:43;5.93;;;3.97;;
54745;SDS011;40640;48.130;11.356;2023-02-26T21:34:46;5.88;;;3.78;;
54745;SDS011;40640;48.130;11.356;2023-02-26T21:38:49;4.05;;;3.38;;
54745;SDS011;40640;48.130;11.356;2023-02-26T21:42:52;7.90;;;3.50;;
54745;SDS011;40640;48.130;11.356;2023-02-26T21:46:57;5.80;;;3.83;;
54745;SDS011;40640;48.130;11.356;2023-02-26T21:51:01;7.97;;;3.22;;
54745;SDS011;40640;48.130;11.356;2023-02-26T21:55:04;8.85;;;4.10;;
54745;SDS011;40640;48.130;11.356;2023-02-26T21:59:07;5.22;;;3.30;;
54745;SDS011;40640;48.130;11.356;2023-02-26T22:03:12;5.60;;;3.22;;
54745;SDS011;40640;48.130;11.356;2023-02-26T22:07:14;7.43;;;3.60;;
54745;SDS011;40640;48.130;11.356;2023-02-26T22:11:18;7.03;;;3.17;;
54745;SDS011;40640;48.130;11.356;2023-02-26T22:15:21;6.35;;;2.95;;
54745;SDS011;40640;48.130;11.356;2023-02-26T22:19:25;4.78;;;3.25;;
54745;SDS011;40640;48.130;11.356;2023-02-26T22:23:28;5.82;;;3.38;;
54745;SDS011;40640;48.130;11.356;2023-02-26T22:27:31;5.05;;;3.35;;
54745;SDS011;40640;48.130;11.356;2023-02-26T22:31:34;4.28;;;2.72;;
54745;SDS011;40640;48.130;11.356;2023-02-26T22:35:38;6.43;;;2.97;;
54745;SDS011;40640;48.130;11.356;2023-02-26T22:39:41;5.43;;;3.38;;
54745;SDS011;40640;48.130;11.356;2023-02-26T22:43:44;7.82;;;3.33;;
54745;SDS011;40640;48.130;11.356;2023-02-26T22:47:47;7.25;;;3.53;;
54745;SDS011;40640;48.130;11.356;2023-02-26T22:51:52;4.25;;;2.70;;
54745;SDS011;40640;48.130;11.356;2023-02-26T22:55:55;4.10;;;2.63;;
54745;SDS011;40640;48.130;11.356;2023-02-26T22:59:58;5.40;;;2.80;;
54745;SDS011;40640;48.130;11.356;2023-02-26T23:04:01;5.45;;;3.55;;
54745;SDS011;40640;48.130;11.356;2023-02-26T23:08:05;10.38;;;3.60;;
54745;SDS011;40640;48.130;11.356;2023-02-26T23:12:08;5.38;;;2.92;;
54745;SDS011;40640;48.130;11.356;2023-02-26T23:16:12;7.82;;;3.03;;
54745;SDS011;40640;48.130;11.356;2023-02-26T23:20:15;6.38;;;3.13;;
54745;SDS011;40640;48.130;11.356;2023-02-26T23:24:19;5.55;;;3.10;;
54745;SDS011;40640;48.130;11.356;2023-02-26T23:28:22;4.55;;;3.13;;
54745;SDS011;40640;48.130;11.356;2023-02-26T23:32:25;3.97;;;2.63;;
54745;SDS011;40640;48.130;11.356;2023-02-26T23:36:28;5.40;;;2.67;;
54745;SDS011;40640;48.130;11.356;2023-02-26T23:40:32;8.00;;;2.55;;
54745;SDS011;40640;48.130;11.356;2023-02-26T23:44:35;5.32;;;2.75;;
54745;SDS011;40640;48.130;11.356;2023-02-26T23:48:38;5.00;;;3.28;;
54745;SDS011;40640;48.130;11.356;2023-02-26T23:52:41;4.57;;;2.83;;
54745;SDS011;40640;48.130;11.356;2023-02-26T23:56:45;5.20;;;3.38;;
